Time;durP1;ratioP1;P1;durP2;ratioP2;P2;SDS_P1;SDS_P2;PMS_P1;PMS_P2;Temp;Humidity;BMP_temperature;BMP_pressure;BME280_temperature;BME280_humidity;BME280_pressure;Samples;Min_cycle;Max_cycle;Signal;HPM_P1;HPM_P2
2021/06/02 00:03:48;;;;;;;3.42;2.47;;;13.10;56.80;;;;;;5016225;28;20041;-65
2021/06/02 00:06:18;;;;;;;4.72;2.83;;;13.00;56.50;;;;;;5016524;28;20036;-66
2021/06/02 00:08:49;;;;;;;5.82;2.95;;;13.00;55.90;;;;;;5019681;28;20049;-65
2021/06/02 00:11:15;;;;;;;3.20;3.00;;;12.90;55.90;;;;;;5013236;28;20030;-66
2021/06/02 00:13:41;;;;;;;3.40;3.10;;;12.80;56.00;;;;;;5020706;28;20124;-66
2021/06/02 00:16:09;;;;;;;3.75;3.15;;;12.70;56.30;;;;;;5015143;28;20116;-66
2021/06/02 00:18:40;;;;;;;3.00;2.75;;;12.70;56.60;;;;;;5023512;28;20041;-66
2021/06/02 00:21:08;;;;;;;3.05;2.75;;;12.60;56.90;;;;;;5014649;28;20037;-65
2021/06/02 00:23:36;;;;;;;3.30;2.92;;;12.50;56.80;;;;;;5023018;28;20037;-66
2021/06/02 00:26:11;;;;;;;3.20;2.90;;;12.50;57.10;;;;;;5015565;28;20639;-66
2021/06/02 00:28:38;;;;;;;3.20;2.90;;;12.40;57.70;;;;;;5015590;28;20473;-66
2021/06/02 00:31:07;;;;;;;4.18;2.85;;;12.40;57.50;;;;;;5017726;28;20049;-66
2021/06/02 00:33:38;;;;;;;4.28;2.95;;;12.30;57.70;;;;;;5016269;28;20030;-66
2021/06/02 00:36:09;;;;;;;2.97;2.70;;;12.30;57.90;;;;;;5015856;28;20041;-66
2021/06/02 00:38:35;;;;;;;3.45;2.85;;;12.30;57.80;;;;;;5015013;28;20045;-66
2021/06/02 00:41:06;;;;;;;3.13;2.83;;;12.20;57.80;;;;;;5016120;28;20069;-65
2021/06/02 00:43:38;;;;;;;3.30;3.00;;;12.20;58.20;;;;;;5016409;28;20150;-66
2021/06/02 00:46:08;;;;;;;3.67;3.15;;;12.20;58.00;;;;;;5018203;28;20124;-66
2021/06/02 00:48:39;;;;;;;3.30;2.83;;;12.10;58.30;;;;;;5013271;28;20037;-66
2021/06/02 00:51:07;;;;;;;4.20;3.03;;;12.10;58.50;;;;;;5014363;28;20512;-66
2021/06/02 00:53:35;;;;;;;3.33;3.03;;;12.00;59.00;;;;;;5015172;28;20424;-66
2021/06/02 00:56:07;;;;;;;3.10;2.80;;;12.00;58.40;;;;;;5018682;28;20364;-67
2021/06/02 00:58:48;;;;;;;4.00;3.20;;;11.90;58.90;;;;;;5017514;28;20120;-66
2021/06/02 01:01:17;;;;;;;5.63;3.15;;;11.90;59.40;;;;;;5017790;28;20037;-66
2021/06/02 01:03:48;;;;;;;4.50;3.30;;;11.90;58.50;;;;;;5015553;28;20053;-66
2021/06/02 01:06:22;;;;;;;3.78;2.95;;;11.90;58.90;;;;;;5014740;28;20523;-66
2021/06/02 01:08:54;;;;;;;5.23;3.20;;;11.80;59.00;;;;;;5021853;28;20072;-66
2021/06/02 01:11:28;;;;;;;3.60;3.08;;;11.80;58.80;;;;;;5014692;28;20048;-65
2021/06/02 01:13:58;;;;;;;3.80;3.38;;;11.80;59.10;;;;;;5017356;28;20033;-66
2021/06/02 01:16:33;;;;;;;6.00;3.97;;;11.70;59.10;;;;;;5017989;28;20030;-66
2021/06/02 01:19:08;;;;;;;4.20;3.35;;;11.70;59.70;;;;;;5017242;28;20452;-66
2021/06/02 01:22:10;;;;;;;4.80;3.55;;;11.60;59.50;;;;;;5015258;28;20516;-67
2021/06/02 01:24:37;;;;;;;5.30;3.80;;;11.60;59.90;;;;;;5013612;28;20570;-67
2021/06/02 01:27:05;;;;;;;4.13;3.08;;;11.60;59.30;;;;;;5015354;28;20045;-67
2021/06/02 01:29:33;;;;;;;3.42;3.10;;;11.50;59.70;;;;;;5017490;28;20029;-65
2021/06/02 01:32:48;;;;;;;3.65;3.08;;;11.50;59.60;;;;;;5014703;28;20102;-66
2021/06/02 01:35:17;;;;;;;5.10;3.08;;;11.50;61.20;;;;;;5002163;28;20120;-65
2021/06/02 01:38:01;;;;;;;3.15;2.88;;;11.40;59.70;;;;;;5014775;28;20655;-66
2021/06/02 01:40:56;;;;;;;3.92;3.20;;;11.40;59.50;;;;;;5010991;28;20029;-66
2021/06/02 01:43:55;;;;;;;3.45;3.15;;;11.30;60.60;;;;;;5032458;28;20635;-66
2021/06/02 01:47:01;;;;;;;3.88;2.97;;;11.30;61.20;;;;;;5015753;28;20420;-66
2021/06/02 01:50:04;;;;;;;3.50;2.88;;;11.20;61.50;;;;;;5012123;28;20051;-65
2021/06/02 01:52:48;;;;;;;3.35;2.97;;;11.20;61.00;;;;;;5017425;28;20030;-66
2021/06/02 01:55:32;;;;;;;4.03;3.10;;;11.10;60.70;;;;;;5015946;28;20049;-66
2021/06/02 01:58:28;;;;;;;3.63;3.33;;;11.10;60.10;;;;;;5014683;28;20090;-66
2021/06/02 02:01:20;;;;;;;4.47;2.95;;;11.10;61.60;;;;;;5014005;28;20026;-66
2021/06/02 02:04:24;;;;;;;4.38;3.40;;;11.00;61.50;;;;;;5013080;28;20033;-67
2021/06/02 02:07:07;;;;;;;4.28;2.97;;;11.00;61.80;;;;;;5009128;28;20116;-65
2021/06/02 02:10:09;;;;;;;3.58;3.28;;;11.00;61.20;;;;;;5016116;28;20306;-67
2021/06/02 02:13:04;;;;;;;4.60;3.10;;;10.90;62.10;;;;;;5011844;28;20029;-67
2021/06/02 02:15:59;;;;;;;4.70;3.10;;;10.90;61.30;;;;;;5017397;28;20045;-66
2021/06/02 02:18:56;;;;;;;4.35;3.03;;;10.90;62.20;;;;;;4996144;28;20129;-66
2021/06/02 02:21:48;;;;;;;3.35;2.95;;;10.80;62.10;;;;;;5016017;28;20034;-65
2021/06/02 02:24:25;;;;;;;4.55;3.25;;;10.80;62.60;;;;;;5013308;28;20481;-66
2021/06/02 02:26:58;;;;;;;4.05;3.28;;;10.70;62.10;;;;;;5015225;28;20045;-66
2021/06/02 02:29:40;;;;;;;3.53;3.20;;;10.70;61.40;;;;;;5014564;28;20034;-65
2021/06/02 02:32:36;;;;;;;3.92;3.58;;;10.60;62.50;;;;;;5016393;28;20471;-65
2021/06/02 02:35:17;;;;;;;;;;;10.60;63.10;;;;;;5016183;28;20053;-65
2021/06/02 02:38:12;;;;;;;3.70;3.40;;;10.60;62.00;;;;;;5018487;28;19921;-65
2021/06/02 02:41:08;;;;;;;4.07;3.60;;;10.50;62.40;;;;;;5013536;28;20030;-66
2021/06/02 02:43:59;;;;;;;6.10;3.70;;;10.40;62.70;;;;;;5022746;28;20038;-67
2021/06/02 02:46:37;;;;;;;4.65;3.08;;;10.40;62.40;;;;;;5019822;28;20447;-66
2021/06/02 02:49:19;;;;;;;4.43;3.40;;;10.30;62.90;;;;;;5013721;28;20048;-65
2021/06/02 02:52:18;;;;;;;4.88;3.47;;;10.30;63.10;;;;;;5013852;28;20275;-66
2021/06/02 02:55:03;;;;;;;4.55;3.17;;;10.30;63.70;;;;;;5014852;28;20508;-66
2021/06/02 02:58:06;;;;;;;4.50;3.43;;;10.30;63.20;;;;;;5014111;28;20439;-65
2021/06/02 03:00:41;;;;;;;3.78;3.38;;;10.30;63.70;;;;;;5014391;28;20292;-66
2021/06/02 03:03:18;;;;;;;5.15;3.60;;;10.30;63.40;;;;;;5023733;28;20401;-66
2021/06/02 03:06:14;;;;;;;4.30;3.67;;;10.30;63.10;;;;;;5014098;28;20108;-66
2021/06/02 03:09:04;;;;;;;4.25;3.85;;;10.30;63.70;;;;;;5016083;28;20049;-66
2021/06/02 03:11:44;;;;;;;5.53;3.75;;;10.20;64.00;;;;;;5019054;28;20073;-66
2021/06/02 03:14:26;;;;;;;3.63;3.15;;;10.20;63.10;;;;;;5018191;28;20038;-65
2021/06/02 03:17:19;;;;;;;4.80;3.63;;;10.10;63.60;;;;;;5016117;28;20034;-65
2021/06/02 03:20:12;;;;;;;5.55;3.97;;;10.10;63.70;;;;;;5019362;28;20045;-65
2021/06/02 03:23:11;;;;;;;4.00;3.60;;;10.10;63.50;;;;;;5019075;28;20509;-67
2021/06/02 03:25:55;;;;;;;5.07;3.90;;;10.00;64.10;;;;;;5019211;28;20067;-66
2021/06/02 03:28:55;;;;;;;5.90;4.07;;;10.00;64.00;;;;;;5023499;28;20038;-66
2021/06/02 03:31:58;;;;;;;7.13;4.07;;;10.00;64.40;;;;;;5016578;28;20065;-65
2021/06/02 03:34:31;;;;;;;4.88;3.28;;;10.00;64.50;;;;;;5019854;28;20025;-66
2021/06/02 03:37:27;;;;;;;4.32;3.47;;;9.90;63.10;;;;;;5014060;28;20037;-65
2021/06/02 03:40:11;;;;;;;;;;;9.90;63.80;;;;;;5019369;28;20030;-66
2021/06/02 03:42:45;;;;;;;5.90;3.58;;;9.90;63.40;;;;;;5018015;28;20081;-67
2021/06/02 03:45:41;;;;;;;4.30;3.63;;;9.90;62.90;;;;;;5016971;28;20030;-65
2021/06/02 03:48:20;;;;;;;5.75;3.53;;;9.90;64.10;;;;;;5013701;28;20038;-67
2021/06/02 03:51:05;;;;;;;8.30;3.60;;;9.90;63.10;;;;;;5017007;28;20065;-66
2021/06/02 03:53:51;;;;;;;6.28;3.50;;;9.90;64.50;;;;;;5014457;28;20030;-64
2021/06/02 03:57:02;;;;;;;4.63;3.78;;;9.80;64.10;;;;;;5016352;28;20041;-65
2021/06/02 03:59:46;;;;;;;4.60;3.58;;;9.80;65.30;;;;;;5020626;28;20030;-66
2021/06/02 04:02:32;;;;;;;4.60;3.87;;;9.80;65.00;;;;;;5017769;28;20133;-67
2021/06/02 04:05:24;;;;;;;5.30;3.92;;;9.80;64.70;;;;;;5019261;28;20501;-66
2021/06/02 04:08:09;;;;;;;4.63;4.00;;;9.80;64.80;;;;;;5015222;28;20497;-65
2021/06/02 04:10:46;;;;;;;4.80;4.10;;;9.80;64.40;;;;;;5013518;28;20038;-65
2021/06/02 04:13:29;;;;;;;4.50;4.05;;;9.70;64.60;;;;;;5015735;28;20022;-65
2021/06/02 04:16:13;;;;;;;4.85;3.88;;;9.70;65.00;;;;;;5015815;28;20033;-65
2021/06/02 04:18:41;;;;;;;5.05;3.75;;;9.80;65.50;;;;;;5015207;28;22019;-65
2021/06/02 04:21:07;;;;;;;4.93;3.63;;;9.80;64.60;;;;;;5016737;28;20080;-65
2021/06/02 04:23:37;;;;;;;5.75;3.63;;;9.80;64.50;;;;;;5016337;28;20060;-66
2021/06/02 04:26:03;;;;;;;6.78;3.75;;;9.80;64.80;;;;;;5018548;28;20097;-66
2021/06/02 04:28:36;;;;;;;5.65;3.85;;;9.90;64.80;;;;;;5020634;28;20026;-65
2021/06/02 04:31:08;;;;;;;6.63;3.80;;;9.90;65.10;;;;;;5019463;28;20045;-62
2021/06/02 04:33:40;;;;;;;6.10;3.90;;;9.90;65.20;;;;;;5018415;28;20041;-67
2021/06/02 04:36:11;;;;;;;5.35;3.63;;;10.00;65.20;;;;;;5017093;28;20333;-66
2021/06/02 04:38:39;;;;;;;4.45;3.50;;;10.10;65.00;;;;;;5017433;28;20052;-65
2021/06/02 04:41:09;;;;;;;6.53;3.80;;;10.10;64.80;;;;;;5018295;28;20512;-67
2021/06/02 04:43:40;;;;;;;4.30;3.85;;;10.20;65.10;;;;;;5019036;28;20033;-67
2021/06/02 04:46:11;;;;;;;5.13;3.80;;;10.20;65.50;;;;;;5019033;28;20029;-66
2021/06/02 04:48:38;;;;;;;8.10;4.07;;;10.20;65.80;;;;;;5018994;28;20132;-65
2021/06/02 04:51:40;;;;;;;6.97;4.18;;;10.20;65.90;;;;;;5018553;28;20061;-66
2021/06/02 04:54:32;;;;;;;9.25;3.97;;;10.30;67.10;;;;;;5019857;28;20516;-66
2021/06/02 04:57:15;;;;;;;6.43;4.28;;;10.30;66.10;;;;;;5019212;28;20046;-67
2021/06/02 05:00:15;;;;;;;8.32;4.28;;;10.30;66.20;;;;;;5019338;28;20119;-66
2021/06/02 05:03:20;;;;;;;5.30;3.80;;;10.40;67.60;;;;;;5017270;28;20400;-65
2021/06/02 05:06:17;;;;;;;5.40;3.95;;;10.50;67.60;;;;;;5016749;28;20029;-66
2021/06/02 05:09:20;;;;;;;6.82;4.13;;;10.60;67.40;;;;;;5016851;28;20040;-66
2021/06/02 05:11:50;;;;;;;7.75;4.30;;;10.70;68.30;;;;;;5016216;28;20509;-66
2021/06/02 05:15:10;;;;;;;5.90;4.15;;;10.80;67.10;;;;;;5017601;28;20046;-66
2021/06/02 05:17:58;;;;;;;9.02;4.28;;;10.80;68.80;;;;;;5035969;28;20503;-67
2021/06/02 05:24:24;;;;;;;7.15;4.28;;;11.10;69.00;;;;;;5020239;28;20133;-66
2021/06/02 05:27:33;;;;;;;7.38;5.10;;;11.20;67.40;;;;;;4979215;28;20038;-66
2021/06/02 05:30:37;;;;;;;9.63;5.60;;;11.30;67.30;;;;;;4978926;28;20058;-67
2021/06/02 05:33:43;;;;;;;10.02;4.93;;;11.50;66.50;;;;;;5018099;28;20026;-66
2021/06/02 05:36:40;;;;;;;6.38;4.95;;;11.60;65.90;;;;;;5019102;28;20026;-66
2021/06/02 05:39:24;;;;;;;9.57;4.70;;;11.80;67.20;;;;;;5018853;28;20030;-66
2021/06/02 05:41:55;;;;;;;10.50;5.13;;;12.00;65.90;;;;;;5015883;28;20117;-66
2021/06/02 05:44:29;;;;;;;8.25;5.28;;;12.10;66.50;;;;;;5014072;28;20030;-67
2021/06/02 05:47:28;;;;;;;12.43;5.13;;;12.30;67.10;;;;;;5016358;28;20687;-65
2021/06/02 05:50:18;;;;;;;5.30;4.80;;;12.50;67.30;;;;;;5018157;28;20125;-66
2021/06/02 05:53:10;;;;;;;6.13;4.82;;;12.60;66.60;;;;;;5018344;28;20038;-66
2021/06/02 05:55:57;;;;;;;6.97;4.88;;;12.80;66.50;;;;;;5022898;28;20029;-68
2021/06/02 05:58:47;;;;;;;5.53;4.78;;;12.90;66.20;;;;;;5017331;28;20041;-66
2021/06/02 06:01:53;;;;;;;5.43;4.93;;;13.10;65.90;;;;;;5017202;28;20124;-66
2021/06/02 06:04:33;;;;;;;7.47;4.55;;;13.20;65.90;;;;;;5018461;28;20052;-67
2021/06/02 06:07:35;;;;;;;5.90;4.32;;;13.40;64.80;;;;;;5016718;28;20144;-66
2021/06/02 06:10:37;;;;;;;5.88;4.60;;;13.50;63.90;;;;;;5017151;28;20142;-65
2021/06/02 06:13:43;;;;;;;12.20;4.78;;;13.70;62.80;;;;;;5015013;28;20037;-64
2021/06/02 06:16:53;;;;;;;7.40;4.38;;;13.80;62.80;;;;;;5016678;28;20026;-67
2021/06/02 06:19:53;;;;;;;5.03;4.53;;;13.90;62.30;;;;;;5018485;28;20112;-66
2021/06/02 06:22:53;;;;;;;4.93;4.45;;;14.00;62.10;;;;;;5017699;28;20026;-66
2021/06/02 06:25:58;;;;;;;6.80;4.90;;;14.10;61.90;;;;;;5016359;28;20041;-66
2021/06/02 06:28:40;;;;;;;6.07;4.35;;;14.30;61.70;;;;;;5015908;28;20029;-66
2021/06/02 06:31:13;;;;;;;5.65;4.47;;;14.40;61.10;;;;;;5017951;28;20041;-67
2021/06/02 06:33:43;;;;;;;6.15;4.72;;;14.50;60.80;;;;;;5017764;28;20045;-66
2021/06/02 06:36:13;;;;;;;4.78;4.30;;;14.60;60.50;;;;;;5017417;28;20060;-67
2021/06/02 06:39:19;;;;;;;6.75;4.60;;;14.70;60.30;;;;;;5014894;28;20044;-67
2021/06/02 06:41:50;;;;;;;6.57;4.80;;;14.80;60.20;;;;;;5018442;28;20042;-67
2021/06/02 06:44:18;;;;;;;5.25;4.75;;;14.90;60.00;;;;;;5013908;28;20033;-67
2021/06/02 06:46:53;;;;;;;5.30;4.80;;;15.00;60.10;;;;;;5018679;28;20037;-66
2021/06/02 06:49:22;;;;;;;5.18;4.68;;;15.00;60.20;;;;;;5022008;28;20505;-66
2021/06/02 06:51:54;;;;;;;5.72;4.72;;;15.20;60.00;;;;;;5024537;28;20038;-68
2021/06/02 06:54:27;;;;;;;5.13;4.20;;;15.30;59.80;;;;;;5021100;28;20029;-66
2021/06/02 06:56:56;;;;;;;5.50;4.90;;;15.40;59.40;;;;;;5020735;28;20038;-66
2021/06/02 06:59:24;;;;;;;7.18;4.63;;;15.40;59.30;;;;;;5021546;28;20235;-66
2021/06/02 07:01:56;;;;;;;5.25;4.40;;;15.50;59.40;;;;;;5008976;28;20495;-66
2021/06/02 07:04:22;;;;;;;6.07;4.80;;;15.60;59.20;;;;;;5020375;28;20037;-65
2021/06/02 07:06:53;;;;;;;5.05;4.47;;;15.70;59.00;;;;;;5021509;28;20038;-66
2021/06/02 07:09:21;;;;;;;6.35;5.35;;;15.80;59.00;;;;;;5018756;28;20034;-67
2021/06/02 07:11:53;;;;;;;8.43;5.82;;;15.90;58.60;;;;;;5019251;28;20042;-67
2021/06/02 07:14:25;;;;;;;7.15;5.03;;;16.00;59.00;;;;;;5019087;28;20030;-67
2021/06/02 07:16:57;;;;;;;8.73;5.60;;;16.10;58.10;;;;;;5018099;28;20037;-66
2021/06/02 07:19:23;;;;;;;7.15;5.05;;;16.20;58.20;;;;;;5020299;28;20079;-66
2021/06/02 07:21:52;;;;;;;10.05;5.55;;;16.30;58.30;;;;;;5025417;28;20038;-66
2021/06/02 07:24:21;;;;;;;8.98;5.07;;;16.40;58.40;;;;;;5020697;28;20034;-66
2021/06/02 07:26:50;;;;;;;6.80;5.00;;;16.50;58.20;;;;;;5020015;28;20029;-66
2021/06/02 07:29:16;;;;;;;10.18;5.50;;;16.60;58.00;;;;;;5021302;28;20037;-66
2021/06/02 07:31:44;;;;;;;8.93;4.90;;;16.70;57.80;;;;;;5019940;28;20053;-64
2021/06/02 07:34:10;;;;;;;7.15;5.00;;;16.80;57.80;;;;;;5021203;28;20037;-66
2021/06/02 07:36:41;;;;;;;6.00;5.30;;;17.00;57.70;;;;;;5017282;28;20037;-66
2021/06/02 07:39:09;;;;;;;8.57;5.22;;;17.10;57.60;;;;;;5020598;28;20045;-66
2021/06/02 07:41:37;;;;;;;14.90;5.45;;;17.20;57.20;;;;;;5019348;28;21898;-66
2021/06/02 07:44:03;;;;;;;8.23;5.10;;;17.30;56.70;;;;;;5019467;28;20041;-66
2021/06/02 07:46:34;;;;;;;7.25;5.10;;;17.40;56.40;;;;;;5017719;28;20037;-66
2021/06/02 07:49:04;;;;;;;5.97;4.93;;;17.50;56.40;;;;;;5020983;28;20042;-67
2021/06/02 07:51:32;;;;;;;8.52;4.95;;;17.60;56.40;;;;;;5025432;28;20104;-67
2021/06/02 07:54:02;;;;;;;5.78;4.85;;;17.70;56.20;;;;;;5021053;28;20030;-67
2021/06/02 07:56:30;;;;;;;6.15;5.13;;;17.80;56.00;;;;;;5017645;28;20520;-66
2021/06/02 07:59:00;;;;;;;17.08;10.57;;;17.90;55.90;;;;;;5020845;28;20049;-67
2021/06/02 08:01:29;;;;;;;6.53;4.80;;;18.10;55.80;;;;;;5023657;28;20120;-68
2021/06/02 08:03:57;;;;;;;7.43;4.38;;;18.20;54.90;;;;;;5019669;28;20588;-67
2021/06/02 08:06:27;;;;;;;6.38;4.45;;;18.30;54.40;;;;;;5017296;28;20041;-67
2021/06/02 08:08:57;;;;;;;8.77;4.53;;;18.40;53.70;;;;;;5027264;28;20041;-67
2021/06/02 08:11:30;;;;;;;5.07;4.18;;;18.50;53.40;;;;;;5017505;28;20045;-67
2021/06/02 08:14:01;;;;;;;8.95;4.38;;;18.60;53.00;;;;;;5019552;28;20034;-67
2021/06/02 08:16:31;;;;;;;7.22;4.38;;;18.70;53.30;;;;;;5022383;28;20038;-66
2021/06/02 08:19:04;;;;;;;6.47;4.68;;;18.90;53.70;;;;;;5019962;28;20034;-67
2021/06/02 08:21:33;;;;;;;13.38;4.90;;;19.00;53.90;;;;;;5018884;28;20120;-67
2021/06/02 08:24:01;;;;;;;6.72;4.30;;;19.20;52.90;;;;;;5020145;28;20133;-67
2021/06/02 08:26:33;;;;;;;4.75;4.25;;;19.30;52.30;;;;;;5019714;28;20041;-66
2021/06/02 08:28:58;;;;;;;8.70;4.88;;;19.40;53.00;;;;;;5018622;28;20034;-67
2021/06/02 08:31:31;;;;;;;6.75;4.45;;;19.50;53.10;;;;;;5017433;28;20342;-67
2021/06/02 08:34:03;;;;;;;6.00;4.40;;;19.70;52.50;;;;;;5019882;28;20066;-67
2021/06/02 08:36:31;;;;;;;6.40;4.35;;;19.80;52.20;;;;;;5018599;28;20030;-67
2021/06/02 08:39:05;;;;;;;8.13;4.20;;;19.90;52.90;;;;;;5017733;28;20062;-66
2021/06/02 08:41:36;;;;;;;8.13;4.55;;;20.00;51.70;;;;;;5019244;28;20073;-67
2021/06/02 08:44:02;;;;;;;5.43;4.93;;;20.20;51.00;;;;;;5020046;28;20029;-67
2021/06/02 08:46:31;;;;;;;6.28;4.32;;;20.30;50.90;;;;;;5015738;28;20165;-67
2021/06/02 08:48:58;;;;;;;5.75;4.60;;;20.40;50.50;;;;;;5024555;28;20061;-67
2021/06/02 08:51:27;;;;;;;5.95;4.80;;;20.50;50.20;;;;;;5023315;28;20113;-67
2021/06/02 08:53:54;;;;;;;10.80;4.65;;;20.60;50.20;;;;;;5019094;28;20041;-67
2021/06/02 08:56:23;;;;;;;7.63;4.13;;;20.70;50.20;;;;;;5019636;28;20034;-67
2021/06/02 08:58:51;;;;;;;6.10;4.38;;;20.80;50.10;;;;;;5018610;28;20071;-67
2021/06/02 09:01:19;;;;;;;7.70;4.43;;;20.90;50.20;;;;;;5019724;28;20116;-67
2021/06/02 09:03:47;;;;;;;8.23;5.22;;;21.00;50.20;;;;;;5017139;28;20042;-67
2021/06/02 09:06:21;;;;;;;6.03;5.00;;;21.20;50.00;;;;;;5016584;28;20061;-65
2021/06/02 09:08:47;;;;;;;7.28;4.72;;;21.40;49.70;;;;;;5017792;28;20041;-68
2021/06/02 09:11:21;;;;;;;11.07;5.03;;;21.50;49.60;;;;;;5017713;28;20466;-67
2021/06/02 09:13:47;;;;;;;5.25;4.75;;;21.70;49.30;;;;;;5017530;28;20038;-67
2021/06/02 09:16:33;;;;;;;4.93;4.53;;;21.80;49.10;;;;;;5017580;28;20084;-66
2021/06/02 09:19:04;;;;;;;7.03;5.40;;;21.90;48.20;;;;;;5019369;28;20037;-68
2021/06/02 09:21:31;;;;;;;12.00;4.90;;;22.10;48.00;;;;;;5016868;28;20042;-69
2021/06/02 09:23:59;;;;;;;6.00;4.38;;;22.20;47.90;;;;;;5019646;28;20390;-67
2021/06/02 09:26:32;;;;;;;13.13;4.43;;;22.20;48.20;;;;;;5018770;28;20053;-67
2021/06/02 09:29:12;;;;;;;5.57;5.07;;;22.30;47.50;;;;;;5018418;28;20038;-68
2021/06/02 09:31:49;;;;;;;5.57;4.95;;;22.50;46.90;;;;;;5023994;28;20041;-68
2021/06/02 09:34:16;;;;;;;8.27;5.32;;;22.60;47.00;;;;;;5015745;28;20044;-67
2021/06/02 09:36:48;;;;;;;5.35;4.85;;;22.70;47.00;;;;;;5017561;28;20611;-68
2021/06/02 09:39:18;;;;;;;9.20;4.30;;;22.70;47.60;;;;;;5017417;28;20038;-68
2021/06/02 09:41:48;;;;;;;6.22;4.47;;;22.80;46.30;;;;;;5018331;28;20505;-67
2021/06/02 09:44:18;;;;;;;12.20;5.10;;;22.90;46.00;;;;;;5018975;28;20083;-68
2021/06/02 09:47:04;;;;;;;6.07;4.15;;;23.00;45.30;;;;;;5015896;28;20049;-66
2021/06/02 09:49:31;;;;;;;;;;;23.10;45.30;;;;;;5015739;28;20029;-68
2021/06/02 09:51:59;;;;;;;4.90;3.97;;;23.30;46.20;;;;;;5017751;28;19940;-68
2021/06/02 09:54:30;;;;;;;7.78;3.95;;;23.40;46.00;;;;;;5017246;28;20083;-67
2021/06/02 09:56:57;;;;;;;6.40;4.28;;;23.50;45.60;;;;;;5016989;28;20589;-67
2021/06/02 09:59:28;;;;;;;5.15;3.95;;;23.60;45.10;;;;;;5017896;28;20512;-67
2021/06/02 10:02:02;;;;;;;9.65;3.53;;;23.70;44.70;;;;;;5018663;28;20053;-68
2021/06/02 10:04:36;;;;;;;3.88;2.10;;;23.80;43.10;;;;;;5016398;28;20029;-68
2021/06/02 10:07:06;;;;;;;5.68;2.15;;;24.00;43.00;;;;;;5016483;28;20117;-68
2021/06/02 10:09:34;;;;;;;3.20;1.98;;;24.10;43.40;;;;;;5015251;28;20498;-67
2021/06/02 10:12:10;;;;;;;4.15;2.00;;;24.20;42.30;;;;;;5015880;28;20108;-67
2021/06/02 10:14:53;;;;;;;6.03;2.28;;;24.30;40.70;;;;;;5017728;28;20038;-67
2021/06/02 10:17:34;;;;;;;3.90;2.30;;;24.40;40.00;;;;;;5016902;28;20033;-68
2021/06/02 10:20:12;;;;;;;4.85;2.40;;;24.50;39.50;;;;;;5021910;28;20050;-69
2021/06/02 10:22:40;;;;;;;3.65;2.38;;;24.50;38.90;;;;;;5015468;28;20341;-67
2021/06/02 10:25:10;;;;;;;3.13;2.13;;;24.60;41.00;;;;;;5018186;28;20033;-68
2021/06/02 10:27:40;;;;;;;1.90;1.80;;;24.70;40.70;;;;;;5017993;28;20052;-67
2021/06/02 10:30:11;;;;;;;6.00;2.42;;;24.70;40.80;;;;;;5014722;28;20038;-69
2021/06/02 10:32:41;;;;;;;1.95;1.83;;;24.90;39.60;;;;;;5011461;28;20097;-67
2021/06/02 10:35:12;;;;;;;2.60;2.03;;;24.90;37.10;;;;;;5012535;28;20489;-67
2021/06/02 10:37:42;;;;;;;3.03;1.70;;;25.00;38.00;;;;;;5011287;28;20057;-68
2021/06/02 10:40:23;;;;;;;4.38;1.70;;;25.00;37.30;;;;;;5011185;28;20028;-68
2021/06/02 10:43:19;;;;;;;2.15;1.80;;;25.00;37.60;;;;;;5014780;28;20033;-68
2021/06/02 10:46:07;;;;;;;2.47;1.70;;;25.10;37.00;;;;;;5017533;28;20667;-67
2021/06/02 10:48:46;;;;;;;4.60;1.85;;;25.10;35.70;;;;;;5015096;28;20064;-67
2021/06/02 10:51:35;;;;;;;2.80;2.00;;;25.10;36.90;;;;;;5016909;28;20037;-69
2021/06/02 10:54:14;;;;;;;3.00;1.88;;;25.20;35.50;;;;;;5017155;28;20034;-68
2021/06/02 10:56:57;;;;;;;2.03;1.83;;;25.20;37.00;;;;;;5022769;28;20120;-67
2021/06/02 10:59:38;;;;;;;2.05;1.85;;;25.20;36.60;;;;;;5016561;28;20038;-69
2021/06/02 11:02:29;;;;;;;2.45;1.70;;;25.20;36.00;;;;;;5016915;28;20509;-67
2021/06/02 11:04:59;;;;;;;3.80;1.75;;;25.20;36.10;;;;;;5015638;28;20045;-67
2021/06/02 11:07:38;;;;;;;1.67;1.58;;;25.30;37.00;;;;;;5016388;28;20054;-68
2021/06/02 11:10:12;;;;;;;3.35;1.50;;;25.30;36.80;;;;;;5015470;28;20033;-65
2021/06/02 11:12:52;;;;;;;1.40;1.30;;;25.40;35.90;;;;;;5014522;28;20124;-67
2021/06/02 11:15:41;;;;;;;1.45;1.27;;;25.40;35.60;;;;;;5016251;28;20022;-68
2021/06/02 11:18:12;;;;;;;1.50;1.20;;;25.50;35.40;;;;;;5016734;28;20327;-68
2021/06/02 11:20:46;;;;;;;1.98;1.15;;;25.50;35.70;;;;;;5016520;28;20033;-67
2021/06/02 11:23:16;;;;;;;1.30;1.20;;;25.50;35.20;;;;;;5015766;28;20040;-68
2021/06/02 11:25:49;;;;;;;2.17;1.20;;;25.60;35.70;;;;;;5012010;28;20104;-68
2021/06/02 11:28:42;;;;;;;1.90;1.50;;;25.60;35.70;;;;;;5017744;28;20560;-68
2021/06/02 11:31:32;;;;;;;1.40;1.30;;;25.70;33.60;;;;;;5032234;28;20041;-68
2021/06/02 11:34:26;;;;;;;2.58;1.27;;;25.80;35.40;;;;;;5019904;28;20034;-67
2021/06/02 11:37:04;;;;;;;3.17;1.38;;;25.80;34.80;;;;;;5019890;28;20030;-68
2021/06/02 11:39:34;;;;;;;1.35;1.23;;;25.80;35.30;;;;;;5020619;28;20040;-68
2021/06/02 11:42:05;;;;;;;2.95;1.42;;;25.90;36.30;;;;;;5017840;28;20124;-68
2021/06/02 11:44:35;;;;;;;1.50;1.30;;;25.90;36.30;;;;;;5014872;28;20120;-67
2021/06/02 11:47:06;;;;;;;1.40;1.30;;;26.00;35.10;;;;;;5020827;28;20053;-67
2021/06/02 11:49:40;;;;;;;2.75;1.23;;;26.10;35.20;;;;;;5018177;28;20471;-67
2021/06/02 11:52:19;;;;;;;1.52;1.30;;;26.10;35.20;;;;;;5019938;28;20128;-67
2021/06/02 11:54:51;;;;;;;1.50;1.40;;;26.20;35.40;;;;;;5019349;28;20095;-68
2021/06/02 11:57:33;;;;;;;1.70;1.40;;;26.20;34.60;;;;;;5019641;28;20079;-68
2021/06/02 12:00:11;;;;;;;2.17;1.50;;;26.20;34.60;;;;;;5018623;28;20030;-67
2021/06/02 12:02:42;;;;;;;1.75;1.40;;;26.30;34.90;;;;;;5019271;28;20036;-67
2021/06/02 12:05:22;;;;;;;1.45;1.35;;;26.30;34.50;;;;;;5019986;28;20033;-67
2021/06/02 12:08:07;;;;;;;1.40;1.25;;;26.30;33.80;;;;;;5018755;28;20046;-68
2021/06/02 12:10:34;;;;;;;2.58;1.25;;;26.40;34.30;;;;;;5017570;28;20038;-68
2021/06/02 12:13:03;;;;;;;2.33;1.20;;;26.50;34.60;;;;;;5020403;28;20033;-67
2021/06/02 12:15:53;;;;;;;4.20;1.35;;;26.50;34.60;;;;;;5019858;28;20038;-67
2021/06/02 12:18:40;;;;;;;1.52;1.40;;;26.50;34.80;;;;;;5025987;28;20378;-68
2021/06/02 12:21:17;;;;;;;1.75;1.30;;;26.60;34.40;;;;;;5018596;28;20038;-68
2021/06/02 12:23:52;;;;;;;1.73;1.40;;;26.70;34.60;;;;;;5019671;28;20709;-68
2021/06/02 12:26:30;;;;;;;2.10;1.20;;;26.70;34.20;;;;;;5019104;28;20026;-67
2021/06/02 12:29:00;;;;;;;3.15;1.58;;;26.80;33.90;;;;;;5018895;28;20034;-67
2021/06/02 12:31:53;;;;;;;1.20;1.10;;;26.90;33.40;;;;;;5019318;28;20038;-67
2021/06/02 12:34:36;;;;;;;2.28;1.35;;;26.90;33.80;;;;;;5015476;28;20065;-68
2021/06/02 12:37:08;;;;;;;1.35;1.25;;;26.90;33.60;;;;;;5015558;28;20030;-67
2021/06/02 12:39:41;;;;;;;1.60;1.50;;;26.90;34.00;;;;;;5012713;28;20061;-67
2021/06/02 12:42:09;;;;;;;3.15;1.23;;;26.90;33.90;;;;;;5013695;28;20037;-68
2021/06/02 12:44:37;;;;;;;3.10;1.30;;;27.00;33.90;;;;;;5015855;28;20030;-67
2021/06/02 12:47:07;;;;;;;2.42;1.38;;;26.90;33.90;;;;;;5015657;28;20045;-67
2021/06/02 12:49:39;;;;;;;1.92;1.20;;;26.90;33.70;;;;;;5012749;28;20208;-68
2021/06/02 12:52:10;;;;;;;1.33;1.23;;;26.90;33.20;;;;;;5013159;28;20045;-68
2021/06/02 12:54:40;;;;;;;1.73;1.30;;;26.80;32.60;;;;;;5012587;28;20095;-67
2021/06/02 12:57:07;;;;;;;1.38;1.27;;;26.80;33.10;;;;;;5017799;28;20037;-68
2021/06/02 12:59:36;;;;;;;1.40;1.30;;;26.80;33.60;;;;;;5017812;28;20056;-68
2021/06/02 13:02:06;;;;;;;3.85;1.50;;;26.80;33.10;;;;;;5017767;28;20038;-68
2021/06/02 13:04:34;;;;;;;1.45;1.35;;;26.80;33.00;;;;;;5016862;28;20582;-67
2021/06/02 13:07:02;;;;;;;1.92;1.30;;;26.80;32.80;;;;;;5023153;28;20588;-68
2021/06/02 13:09:30;;;;;;;2.42;1.33;;;26.80;33.20;;;;;;5017789;28;20061;-69
2021/06/02 13:11:56;;;;;;;2.95;1.30;;;26.80;33.00;;;;;;5013755;28;20100;-69
2021/06/02 13:14:36;;;;;;;1.30;1.20;;;26.80;33.90;;;;;;5012087;28;20128;-67
2021/06/02 13:17:03;;;;;;;1.10;1.10;;;26.90;33.40;;;;;;5014926;28;20041;-68
2021/06/02 13:19:41;;;;;;;2.53;1.40;;;26.90;33.50;;;;;;5013274;28;20505;-68
2021/06/02 13:22:22;;;;;;;2.55;1.30;;;27.00;33.30;;;;;;5014968;28;20041;-68
2021/06/02 13:24:48;;;;;;;1.30;1.20;;;27.10;33.20;;;;;;5013459;28;20563;-68
2021/06/02 13:27:21;;;;;;;1.65;1.20;;;27.10;33.00;;;;;;5014597;28;20049;-67
2021/06/02 13:30:09;;;;;;;1.83;1.15;;;27.20;33.20;;;;;;5016636;28;20623;-67
2021/06/02 13:32:37;;;;;;;3.35;1.60;;;27.20;32.40;;;;;;5016700;28;20038;-68
2021/06/02 13:35:18;;;;;;;1.30;1.20;;;27.30;32.70;;;;;;5013087;28;20938;-67
2021/06/02 13:37:46;;;;;;;2.78;1.55;;;27.30;32.60;;;;;;5011790;28;20033;-68
2021/06/02 13:40:22;;;;;;;1.73;1.30;;;27.30;32.50;;;;;;5012241;28;20038;-68
2021/06/02 13:43:13;;;;;;;1.83;1.55;;;27.30;32.80;;;;;;5013808;28;20034;-67
2021/06/02 13:45:46;;;;;;;1.30;1.20;;;27.40;33.10;;;;;;5017003;28;20639;-67
2021/06/02 13:48:30;;;;;;;3.08;1.17;;;27.40;33.10;;;;;;5017959;28;20038;-68
2021/06/02 13:51:19;;;;;;;2.27;1.27;;;27.50;32.70;;;;;;5016042;28;20040;-67